createdAt,value
2022-12-31T00:04:38.393Z,90.70
2022-12-31T00:09:41.369Z,90.36
2022-12-31T00:14:44.193Z,90.25
2022-12-31T00:19:47.190Z,90.03
2022-12-31T00:24:49.928Z,89.74
2022-12-31T00:29:52.667Z,89.25
2022-12-31T00:34:55.398Z,89.36
2022-12-31T00:39:58.225Z,89.20
2022-12-31T00:45:00.977Z,88.85
2022-12-31T00:50:03.943Z,88.82
2022-12-31T00:55:07.558Z,88.42
2022-12-31T01:00:11.775Z,87.79
2022-12-31T01:05:14.651Z,87.51
2022-12-31T01:10:37.351Z,86.82
2022-12-31T01:15:40.153Z,86.23
2022-12-31T01:20:44.440Z,85.35
2022-12-31T01:25:47.200Z,85.55
2022-12-31T01:30:50.028Z,85.16
2022-12-31T01:35:52.994Z,85.01
2022-12-31T01:40:55.748Z,84.85
2022-12-31T01:45:58.567Z,84.08
2022-12-31T01:51:01.964Z,83.91
2022-12-31T01:56:06.587Z,83.65
2022-12-31T02:01:10.219Z,83.33
2022-12-31T02:06:29.281Z,83.34
2022-12-31T02:11:36.611Z,82.96
2022-12-31T02:16:53.064Z,82.70
2022-12-31T02:22:23.671Z,82.41
2022-12-31T02:27:39.465Z,81.75
2022-12-31T02:32:51.579Z,81.90
2022-12-31T02:38:01.034Z,81.28
2022-12-31T02:43:03.889Z,80.53
2022-12-31T02:48:20.952Z,79.89
2022-12-31T02:53:44.461Z,80.09
2022-12-31T02:59:12.309Z,80.28
2022-12-31T03:04:32.089Z,80.75
2022-12-31T03:09:36.239Z,80.94
2022-12-31T03:14:39.165Z,81.38
2022-12-31T03:20:00.985Z,81.51
2022-12-31T03:25:28.312Z,81.68
2022-12-31T03:30:32.806Z,81.64
2022-12-31T03:35:37.646Z,82.09
2022-12-31T03:40:43.601Z,82.29
2022-12-31T03:45:54.382Z,82.32
2022-12-31T03:50:57.245Z,82.28
2022-12-31T03:56:00.030Z,82.53
2022-12-31T04:01:02.838Z,82.34
2022-12-31T04:06:05.746Z,82.90
2022-12-31T04:11:08.541Z,82.97
2022-12-31T04:16:11.319Z,83.36
2022-12-31T04:21:14.066Z,83.53
2022-12-31T04:26:16.789Z,83.94
2022-12-31T04:31:19.522Z,84.38
2022-12-31T04:36:22.685Z,84.79
2022-12-31T04:41:27.326Z,85.45
2022-12-31T04:46:32.590Z,86.71
2022-12-31T04:51:35.420Z,88.04
2022-12-31T04:56:38.227Z,89.26
2022-12-31T05:01:41.113Z,90.67
2022-12-31T05:06:44.005Z,91.65
2022-12-31T05:11:46.716Z,92.69
2022-12-31T05:16:49.523Z,93.68
2022-12-31T05:22:10.989Z,94.52
2022-12-31T05:27:13.724Z,96.23
2022-12-31T05:32:16.975Z,97.39
2022-12-31T05:37:19.771Z,97.90
2022-12-31T05:42:23.526Z,98.75
2022-12-31T05:47:26.428Z,98.85
2022-12-31T05:52:29.229Z,99.23
2022-12-31T05:57:31.962Z,99.74
2022-12-31T06:02:34.738Z,99.85
2022-12-31T06:07:37.592Z,100.00
2022-12-31T06:12:40.311Z,100.00
2022-12-31T06:17:43.146Z,100.00
2022-12-31T06:22:46.078Z,99.98
2022-12-31T06:27:49.085Z,99.94
2022-12-31T06:32:51.878Z,99.86
2022-12-31T06:37:54.699Z,99.65
2022-12-31T06:43:00.145Z,99.76
2022-12-31T06:48:03.391Z,99.58
2022-12-31T06:53:06.663Z,99.42
2022-12-31T06:58:13.377Z,99.36
2022-12-31T07:03:30.074Z,99.21
2022-12-31T07:08:51.457Z,99.05
2022-12-31T07:14:15.945Z,99.14
2022-12-31T07:19:36.847Z,98.68
2022-12-31T07:24:39.895Z,98.57
2022-12-31T07:30:09.221Z,98.15
2022-12-31T07:35:29.727Z,97.99
2022-12-31T07:40:46.771Z,97.96
2022-12-31T07:45:59.184Z,97.72
2022-12-31T07:51:02.455Z,97.55
2022-12-31T07:56:08.514Z,97.46
2022-12-31T08:01:14.420Z,97.43
2022-12-31T08:06:34.165Z,96.98
2022-12-31T08:11:45.806Z,96.80
2022-12-31T08:16:49.208Z,96.80
2022-12-31T08:22:19.654Z,96.57
2022-12-31T08:27:42.136Z,96.29
2022-12-31T08:33:13.825Z,95.72
2022-12-31T08:38:27.482Z,94.93
2022-12-31T08:44:00.279Z,94.74
2022-12-31T08:49:03.304Z,94.39
2022-12-31T08:54:06.483Z,94.44
2022-12-31T08:59:27.692Z,94.31
2022-12-31T09:04:41.337Z,94.43
2022-12-31T09:09:52.953Z,94.09
2022-12-31T09:15:06.486Z,94.15
2022-12-31T09:20:26.254Z,94.30
2022-12-31T09:25:29.640Z,94.02
2022-12-31T09:30:51.118Z,93.81
2022-12-31T09:36:03.330Z,93.23
2022-12-31T09:41:17.137Z,92.64
2022-12-31T09:46:38.403Z,92.41
2022-12-31T09:51:59.281Z,92.34
2022-12-31T09:57:22.705Z,92.58
2022-12-31T10:02:53.961Z,92.87
2022-12-31T10:08:13.303Z,93.48
2022-12-31T10:13:53.662Z,93.99
2022-12-31T10:19:18.482Z,94.50
2022-12-31T10:24:58.771Z,95.14
2022-12-31T10:30:18.680Z,96.06
2022-12-31T10:35:43.463Z,96.39
2022-12-31T10:41:24.275Z,97.00
2022-12-31T10:47:04.082Z,97.20
2022-12-31T10:52:19.664Z,97.31
2022-12-31T10:57:51.563Z,97.32
2022-12-31T11:03:29.714Z,98.09
2022-12-31T11:08:55.328Z,98.64
2022-12-31T11:14:08.763Z,99.17
2022-12-31T11:19:36.427Z,99.77
2022-12-31T11:25:06.442Z,99.97
2022-12-31T11:30:28.014Z,100.00
2022-12-31T11:35:39.860Z,100.00
2022-12-31T11:41:03.226Z,100.00
2022-12-31T11:46:08.971Z,100.00
2022-12-31T11:51:33.184Z,100.00
2022-12-31T11:56:40.676Z,100.00
2022-12-31T12:02:03.350Z,100.00
2022-12-31T12:07:14.801Z,100.00
2022-12-31T12:12:17.951Z,100.00
2022-12-31T12:17:32.571Z,100.00
2022-12-31T12:22:35.444Z,100.00
2022-12-31T12:27:38.197Z,100.00
2022-12-31T12:33:04.959Z,100.00
2022-12-31T12:38:22.341Z,100.00
2022-12-31T12:43:35.075Z,100.00
2022-12-31T12:48:44.929Z,100.00
2022-12-31T12:53:56.792Z,100.00
2022-12-31T12:59:32.143Z,100.00
2022-12-31T13:05:05.045Z,100.00
2022-12-31T13:10:29.511Z,100.00
2022-12-31T13:15:50.607Z,100.00
2022-12-31T13:21:23.852Z,100.00
2022-12-31T13:26:26.616Z,100.00
2022-12-31T13:31:35.277Z,100.00
2022-12-31T13:36:41.754Z,100.00
2022-12-31T13:42:13.914Z,100.00
2022-12-31T13:47:35.493Z,100.00
2022-12-31T13:52:46.399Z,100.00
2022-12-31T13:58:01.964Z,100.00
2022-12-31T14:03:36.578Z,100.00
2022-12-31T14:08:39.460Z,100.00
2022-12-31T14:14:01.543Z,100.00
2022-12-31T14:19:14.580Z,100.00
2022-12-31T14:24:37.205Z,100.00
2022-12-31T14:29:43.086Z,100.00
2022-12-31T14:35:15.828Z,100.00
2022-12-31T14:40:46.673Z,100.00
2022-12-31T14:46:12.810Z,100.00
2022-12-31T14:51:16.036Z,100.00
2022-12-31T14:56:41.356Z,100.00
2022-12-31T15:01:45.584Z,100.00
2022-12-31T15:07:04.715Z,100.00
2022-12-31T15:12:25.585Z,100.00
2022-12-31T15:17:31.166Z,100.00
2022-12-31T15:22:50.013Z,100.00
2022-12-31T15:27:54.136Z,100.00
2022-12-31T15:33:01.224Z,100.00
2022-12-31T15:38:29.070Z,100.00
2022-12-31T15:43:44.069Z,100.00
2022-12-31T15:49:01.966Z,100.00
2022-12-31T15:54:22.940Z,100.00
2022-12-31T15:59:26.991Z,99.97
2022-12-31T16:04:33.557Z,99.75
2022-12-31T16:09:36.390Z,99.54
2022-12-31T16:14:42.730Z,99.55
2022-12-31T16:19:48.837Z,99.91
2022-12-31T16:25:30.048Z,99.30
2022-12-31T16:30:32.178Z,98.89
2022-12-31T16:35:36.986Z,98.63
2022-12-31T16:40:59.199Z,98.76
2022-12-31T16:46:31.293Z,98.62
2022-12-31T16:51:37.527Z,98.62
2022-12-31T16:56:43.102Z,98.42
2022-12-31T17:01:46.703Z,98.56
2022-12-31T17:06:50.264Z,98.78
2022-12-31T17:11:57.991Z,98.85
2022-12-31T17:17:09.002Z,98.95
2022-12-31T17:22:17.558Z,98.84
2022-12-31T17:27:20.406Z,98.60
2022-12-31T17:32:35.719Z,98.74
2022-12-31T17:37:38.547Z,98.87
2022-12-31T17:42:41.329Z,99.31
2022-12-31T17:47:48.963Z,99.77
2022-12-31T17:52:57.400Z,100.00
2022-12-31T17:58:05.036Z,100.00
2022-12-31T18:03:07.948Z,100.00
2022-12-31T18:08:10.775Z,100.00
2022-12-31T18:13:17.942Z,100.00
2022-12-31T18:18:25.524Z,100.00
2022-12-31T18:23:41.618Z,100.00
2022-12-31T18:28:44.877Z,100.00
2022-12-31T18:33:48.928Z,100.00
2022-12-31T18:38:52.850Z,100.00
2022-12-31T18:43:55.958Z,100.00
2022-12-31T18:48:58.737Z,100.00
2022-12-31T18:54:02.549Z,100.00
2022-12-31T18:59:05.340Z,100.00
2022-12-31T19:04:22.812Z,100.00
2022-12-31T19:14:50.425Z,100.00
2022-12-31T19:19:53.221Z,100.00
2022-12-31T19:24:55.955Z,100.00
2022-12-31T19:30:00.572Z,100.00
2022-12-31T19:35:03.386Z,100.00
2022-12-31T19:40:07.651Z,100.00
2022-12-31T19:45:28.126Z,100.00
2022-12-31T19:50:31.061Z,100.00
2022-12-31T19:55:33.828Z,100.00
2022-12-31T20:00:36.706Z,100.00
2022-12-31T20:05:39.459Z,100.00
2022-12-31T20:10:43.447Z,100.00
2022-12-31T20:15:47.985Z,100.00
2022-12-31T20:20:55.762Z,100.00
2022-12-31T20:25:59.944Z,100.00
2022-12-31T20:31:11.243Z,100.00
2022-12-31T20:36:16.654Z,100.00
2022-12-31T20:41:22.145Z,100.00
2022-12-31T20:46:27.326Z,100.00
2022-12-31T20:51:32.208Z,100.00
2022-12-31T20:56:37.913Z,100.00
2022-12-31T21:02:19.517Z,100.00
2022-12-31T21:07:03.999Z,100.00
2022-12-31T21:12:25.869Z,99.98
2022-12-31T21:17:28.735Z,99.84
2022-12-31T21:22:33.898Z,99.90
2022-12-31T21:27:36.749Z,99.71
2022-12-31T21:32:39.568Z,99.86
2022-12-31T21:37:58.216Z,99.97
2022-12-31T21:43:03.736Z,100.00
2022-12-31T21:48:25.162Z,99.71
2022-12-31T21:53:34.093Z,99.61
2022-12-31T21:58:45.849Z,98.98
2022-12-31T22:03:48.685Z,98.83
2022-12-31T22:08:55.369Z,98.38
2022-12-31T22:13:58.064Z,97.79
2022-12-31T22:19:00.977Z,97.60
2022-12-31T22:24:04.116Z,97.41
2022-12-31T22:29:06.882Z,97.25
2022-12-31T22:34:09.700Z,97.17
2022-12-31T22:39:43.733Z,97.22
2022-12-31T22:44:39.065Z,96.85
2022-12-31T22:49:41.889Z,96.49
2022-12-31T22:54:46.187Z,96.17
2022-12-31T22:59:48.925Z,96.14
2022-12-31T23:04:51.691Z,96.49
2022-12-31T23:10:12.937Z,96.55
2022-12-31T23:15:34.286Z,96.28
2022-12-31T23:20:57.467Z,95.69
2022-12-31T23:26:02.039Z,95.14
2022-12-31T23:31:07.773Z,94.71
2022-12-31T23:36:10.669Z,93.63
2022-12-31T23:41:14.952Z,93.16
2022-12-31T23:46:18.068Z,92.39
2022-12-31T23:51:21.340Z,91.78
2022-12-31T23:56:24.368Z,90.76
